createdAt,value
2018-06-21T00:00:11.716Z,19.49
2018-06-21T00:02:41.351Z,19.36
2018-06-21T00:05:11.060Z,19.14
2018-06-21T00:07:40.672Z,19.19
2018-06-21T00:10:10.311Z,19.11
2018-06-21T00:12:39.961Z,19.19
2018-06-21T00:15:09.591Z,19.25
2018-06-21T00:17:39.244Z,19.30
2018-06-21T00:20:08.933Z,19.23
2018-06-21T00:22:38.600Z,19.21
2018-06-21T00:25:08.290Z,19.12
2018-06-21T00:27:37.900Z,19.15
2018-06-21T00:30:07.553Z,19.12
2018-06-21T00:32:37.199Z,19.12
2018-06-21T00:35:06.887Z,18.99
2018-06-21T00:37:36.488Z,18.94
2018-06-21T00:40:06.216Z,19.02
2018-06-21T00:42:35.840Z,18.99
2018-06-21T00:45:05.488Z,18.98
2018-06-21T00:47:35.147Z,18.92
2018-06-21T00:50:04.855Z,18.85
2018-06-21T00:52:34.500Z,18.93
2018-06-21T00:55:04.423Z,18.91
2018-06-21T00:57:34.059Z,18.89
2018-06-21T01:00:03.762Z,18.91
2018-06-21T01:02:33.433Z,18.90
2018-06-21T01:05:03.043Z,18.81
2018-06-21T01:07:32.664Z,18.81
2018-06-21T01:10:02.342Z,18.99
2018-06-21T01:12:32.016Z,19.06
2018-06-21T01:15:01.643Z,19.03
2018-06-21T01:17:31.287Z,18.97
2018-06-21T01:20:00.904Z,18.94
2018-06-21T01:22:30.531Z,18.85
2018-06-21T01:25:00.184Z,18.75
2018-06-21T01:27:29.788Z,18.71
2018-06-21T01:29:59.407Z,18.59
2018-06-21T01:32:29.075Z,18.61
2018-06-21T01:34:58.692Z,18.63
2018-06-21T01:37:28.316Z,18.58
2018-06-21T01:39:57.976Z,18.54
2018-06-21T01:42:27.587Z,18.52
2018-06-21T01:44:57.240Z,18.44
2018-06-21T01:47:26.859Z,18.35
2018-06-21T01:49:56.504Z,18.40
2018-06-21T01:52:26.165Z,18.27
2018-06-21T01:54:55.811Z,18.33
2018-06-21T01:57:25.432Z,18.19
2018-06-21T01:59:55.108Z,18.24
2018-06-21T02:02:24.731Z,18.19
2018-06-21T02:04:54.373Z,18.19
2018-06-21T02:07:24.032Z,18.32
2018-06-21T02:09:53.637Z,18.16
2018-06-21T02:12:23.275Z,18.19
2018-06-21T02:14:52.968Z,18.22
2018-06-21T02:17:22.652Z,18.17
2018-06-21T02:19:52.407Z,18.05
2018-06-21T02:22:22.092Z,18.06
2018-06-21T02:24:51.780Z,18.03
2018-06-21T02:27:21.532Z,18.11
2018-06-21T02:29:51.233Z,18.16
2018-06-21T02:32:20.968Z,18.09
2018-06-21T02:34:50.708Z,18.10
2018-06-21T02:37:20.436Z,18.00
2018-06-21T02:39:50.161Z,18.05
2018-06-21T02:42:19.863Z,18.03
2018-06-21T02:44:49.617Z,18.00
2018-06-21T02:47:19.320Z,18.00
2018-06-21T02:49:49.024Z,17.94
2018-06-21T02:52:18.764Z,17.82
2018-06-21T02:54:48.477Z,17.90
2018-06-21T02:57:18.216Z,17.82
2018-06-21T02:59:48.017Z,17.74
2018-06-21T03:02:18.040Z,17.84
2018-06-21T03:04:47.822Z,17.84
2018-06-21T03:07:17.540Z,17.74
2018-06-21T03:09:47.292Z,17.81
2018-06-21T03:12:23.864Z,17.76
2018-06-21T03:14:54.796Z,17.72
2018-06-21T03:17:24.512Z,17.56
2018-06-21T03:19:54.261Z,17.52
2018-06-21T03:22:23.913Z,17.47
2018-06-21T03:24:53.531Z,17.40
2018-06-21T03:27:23.184Z,17.36
2018-06-21T03:29:52.897Z,17.37
2018-06-21T03:32:22.588Z,17.40
2018-06-21T03:34:52.255Z,17.41
2018-06-21T03:37:21.885Z,17.53
2018-06-21T03:39:51.499Z,17.58
2018-06-21T03:42:21.168Z,17.48
2018-06-21T03:44:50.791Z,17.56
2018-06-21T03:47:20.412Z,17.59
2018-06-21T03:49:50.068Z,17.65
2018-06-21T03:52:19.758Z,17.71
2018-06-21T03:54:49.332Z,17.73
2018-06-21T03:57:19.107Z,17.71
2018-06-21T03:59:48.732Z,17.76
2018-06-21T04:02:18.340Z,17.82
2018-06-21T04:04:48.052Z,17.85
2018-06-21T04:07:17.663Z,17.96
2018-06-21T04:09:47.268Z,18.03
2018-06-21T04:12:16.928Z,18.08
2018-06-21T04:14:46.559Z,18.18
2018-06-21T04:17:16.240Z,18.29
2018-06-21T04:19:45.855Z,18.39
2018-06-21T04:22:15.491Z,18.38
2018-06-21T04:24:45.142Z,18.41
2018-06-21T04:27:14.860Z,18.46
2018-06-21T04:29:44.498Z,18.51
2018-06-21T04:32:14.188Z,18.59
2018-06-21T04:34:43.808Z,18.73
2018-06-21T04:37:13.456Z,18.82
2018-06-21T04:39:43.139Z,18.83
2018-06-21T04:42:12.784Z,18.84
2018-06-21T04:44:42.391Z,18.83
2018-06-21T04:47:12.064Z,18.82
2018-06-21T04:49:41.713Z,18.84
2018-06-21T04:52:11.314Z,18.76
2018-06-21T04:54:40.979Z,18.81
2018-06-21T04:57:10.612Z,18.77
2018-06-21T04:59:40.276Z,18.88
2018-06-21T05:02:09.932Z,18.87
2018-06-21T05:04:39.547Z,18.93
2018-06-21T05:07:09.212Z,19.05
2018-06-21T05:09:38.863Z,19.19
2018-06-21T05:12:08.486Z,19.29
2018-06-21T05:14:38.156Z,19.46
2018-06-21T05:17:07.810Z,19.58
2018-06-21T05:19:37.457Z,19.82
2018-06-21T05:22:07.162Z,19.99
2018-06-21T05:24:36.783Z,19.98
2018-06-21T05:27:06.420Z,20.07
2018-06-21T05:29:36.123Z,20.28
2018-06-21T05:32:05.789Z,20.48
2018-06-21T05:34:35.468Z,20.55
2018-06-21T05:37:05.166Z,20.66
2018-06-21T05:39:34.791Z,20.87
2018-06-21T05:42:04.452Z,20.82
2018-06-21T05:44:34.126Z,20.90
2018-06-21T05:47:03.789Z,20.98
2018-06-21T05:49:33.407Z,20.94
2018-06-21T05:52:03.088Z,20.94
2018-06-21T05:54:32.699Z,20.90
2018-06-21T05:57:02.320Z,20.99
2018-06-21T05:59:32.004Z,20.98
2018-06-21T06:02:01.654Z,21.02
2018-06-21T06:04:31.452Z,21.14
2018-06-21T06:07:01.124Z,21.21
2018-06-21T06:09:30.776Z,21.38
2018-06-21T06:12:00.418Z,21.54
2018-06-21T06:14:30.079Z,21.68
2018-06-21T06:16:59.715Z,21.71
2018-06-21T06:19:29.345Z,21.64
2018-06-21T06:21:59.030Z,21.68
2018-06-21T06:24:28.657Z,21.60
2018-06-21T06:26:58.287Z,21.63
2018-06-21T06:29:27.965Z,21.68
2018-06-21T06:31:57.625Z,21.70
2018-06-21T06:34:27.325Z,21.57
2018-06-21T06:36:57.002Z,21.65
2018-06-21T06:39:26.992Z,21.63
2018-06-21T06:41:56.683Z,21.45
2018-06-21T06:44:26.316Z,21.40
2018-06-21T06:46:55.951Z,21.40
2018-06-21T06:49:25.628Z,21.26
2018-06-21T06:51:55.263Z,21.14
2018-06-21T06:54:24.971Z,21.09
2018-06-21T06:56:54.657Z,21.10
2018-06-21T06:59:24.296Z,21.14
2018-06-21T07:01:53.980Z,21.21
2018-06-21T07:04:23.664Z,21.40
2018-06-21T07:06:53.308Z,21.64
2018-06-21T07:09:22.934Z,21.78
2018-06-21T07:11:52.622Z,21.87
2018-06-21T07:14:22.360Z,21.98
2018-06-21T07:16:51.960Z,22.01
2018-06-21T07:19:21.805Z,22.09
2018-06-21T07:21:51.433Z,22.10
2018-06-21T07:24:21.116Z,21.98
2018-06-21T07:26:50.757Z,22.21
2018-06-21T07:29:20.381Z,22.20
2018-06-21T07:31:50.096Z,22.05
2018-06-21T07:34:19.728Z,22.08
2018-06-21T07:36:49.363Z,22.07
2018-06-21T07:39:19.043Z,21.92
2018-06-21T07:41:48.663Z,21.89
2018-06-21T07:44:18.275Z,21.84
2018-06-21T07:46:47.974Z,21.82
2018-06-21T07:49:17.619Z,21.84
2018-06-21T07:51:47.291Z,21.85
2018-06-21T07:54:16.970Z,21.79
2018-06-21T07:56:46.584Z,21.71
2018-06-21T07:59:16.241Z,21.56
2018-06-21T08:01:45.873Z,21.31
2018-06-21T08:04:15.507Z,20.96
2018-06-21T08:06:45.230Z,20.58
2018-06-21T08:09:14.948Z,20.25
2018-06-21T08:11:44.633Z,19.87
2018-06-21T08:14:14.373Z,19.52
2018-06-21T08:16:45.596Z,19.07
2018-06-21T08:19:15.291Z,18.51
2018-06-21T08:21:44.955Z,18.25
2018-06-21T08:24:15.593Z,17.98
2018-06-21T08:26:45.281Z,17.68
2018-06-21T08:29:15.236Z,17.61
2018-06-21T08:31:45.112Z,17.50
2018-06-21T08:34:14.787Z,17.40
2018-06-21T08:36:44.532Z,17.39
2018-06-21T08:39:14.187Z,17.27
2018-06-21T08:41:43.892Z,17.30
2018-06-21T08:44:13.551Z,17.16
2018-06-21T08:46:43.245Z,16.95
2018-06-21T08:49:12.896Z,16.72
2018-06-21T08:51:42.576Z,16.79
2018-06-21T08:54:12.245Z,16.74
2018-06-21T08:56:41.924Z,16.60
2018-06-21T08:59:11.575Z,16.69
2018-06-21T09:01:41.274Z,16.68
2018-06-21T09:04:10.925Z,16.64
2018-06-21T09:06:40.568Z,16.51
2018-06-21T09:09:10.667Z,16.44
2018-06-21T09:11:40.384Z,16.32
2018-06-21T09:14:10.065Z,16.41
2018-06-21T09:16:39.787Z,16.36
2018-06-21T09:19:09.463Z,16.36
2018-06-21T09:21:39.144Z,16.46
2018-06-21T09:24:08.928Z,16.21
2018-06-21T09:26:38.592Z,16.38
2018-06-21T09:29:08.261Z,16.31
2018-06-21T09:31:38.116Z,16.39
2018-06-21T09:34:07.787Z,16.34
2018-06-21T09:36:42.214Z,16.44
2018-06-21T09:39:17.447Z,16.59
2018-06-21T09:42:53.902Z,16.62
2018-06-21T09:45:28.680Z,16.67
2018-06-21T09:48:34.555Z,16.41
2018-06-21T09:51:04.216Z,16.42
2018-06-21T09:53:33.880Z,16.43
2018-06-21T09:56:03.588Z,16.42
2018-06-21T09:58:33.211Z,16.53
2018-06-21T10:01:04.025Z,16.47
2018-06-21T10:03:34.204Z,16.93
2018-06-21T10:06:03.864Z,17.16
2018-06-21T10:08:33.544Z,17.40
2018-06-21T10:11:03.190Z,17.89
2018-06-21T10:13:32.840Z,18.38
2018-06-21T10:16:02.572Z,18.59
2018-06-21T10:18:32.216Z,18.61
2018-06-21T10:21:01.876Z,18.63
2018-06-21T10:23:31.579Z,18.62
2018-06-21T10:26:01.261Z,18.60
2018-06-21T10:28:30.905Z,18.71
2018-06-21T10:31:00.617Z,18.74
2018-06-21T10:33:30.260Z,19.10
2018-06-21T10:35:59.900Z,19.21
2018-06-21T10:38:29.587Z,19.30
2018-06-21T10:40:59.231Z,19.14
2018-06-21T10:43:28.868Z,18.84
2018-06-21T10:45:58.572Z,18.51
2018-06-21T10:48:28.217Z,18.29
2018-06-21T10:50:57.871Z,18.29
2018-06-21T10:53:27.572Z,18.32
2018-06-21T10:55:57.211Z,18.36
2018-06-21T10:58:26.859Z,18.36
2018-06-21T11:00:56.563Z,18.31
2018-06-21T11:03:26.207Z,18.33
2018-06-21T11:05:55.960Z,18.61
2018-06-21T11:08:25.637Z,18.84
2018-06-21T11:10:55.300Z,18.83
2018-06-21T11:13:24.934Z,18.62
2018-06-21T11:15:54.648Z,18.27
2018-06-21T11:18:24.303Z,18.08
2018-06-21T11:20:53.931Z,17.61
2018-06-21T11:23:23.603Z,17.19
2018-06-21T11:25:53.208Z,16.55
2018-06-21T11:28:22.832Z,16.24
2018-06-21T11:30:52.483Z,16.34
2018-06-21T11:33:22.119Z,16.17
2018-06-21T11:35:51.745Z,16.28
2018-06-21T11:38:21.404Z,16.30
2018-06-21T11:40:51.033Z,16.33
2018-06-21T11:43:20.659Z,16.47
2018-06-21T11:45:50.316Z,16.61
2018-06-21T11:48:19.932Z,16.81
2018-06-21T11:50:49.554Z,17.04
2018-06-21T11:53:19.246Z,17.34
2018-06-21T11:55:48.881Z,17.17
2018-06-21T11:58:18.509Z,17.52
2018-06-21T12:00:48.185Z,18.00
2018-06-21T12:03:17.880Z,18.37
2018-06-21T12:05:47.565Z,18.77
2018-06-21T12:08:17.207Z,19.07
2018-06-21T12:10:46.808Z,18.93
2018-06-21T12:13:16.467Z,19.03
2018-06-21T12:15:46.092Z,19.39
2018-06-21T12:18:16.168Z,19.35
2018-06-21T12:20:45.850Z,19.33
2018-06-21T12:23:15.480Z,19.71
2018-06-21T12:25:45.160Z,19.85
2018-06-21T12:28:14.789Z,19.92
2018-06-21T12:30:44.425Z,19.92
2018-06-21T12:33:14.264Z,20.27
2018-06-21T12:35:43.887Z,20.23
2018-06-21T12:38:13.503Z,19.87
2018-06-21T12:40:43.172Z,20.05
2018-06-21T12:43:12.824Z,19.82
2018-06-21T12:45:42.496Z,19.91
2018-06-21T12:48:12.100Z,20.16
2018-06-21T12:50:41.744Z,20.10
2018-06-21T12:53:11.425Z,20.16
2018-06-21T12:55:41.057Z,20.55
2018-06-21T12:58:10.720Z,20.62
2018-06-21T13:00:40.448Z,20.13
2018-06-21T13:03:10.080Z,20.21
2018-06-21T13:05:39.762Z,20.74
2018-06-21T13:08:09.496Z,21.09
2018-06-21T13:11:50.193Z,20.33
2018-06-21T13:14:25.520Z,19.24
2018-06-21T13:16:55.179Z,18.73
2018-06-21T13:19:24.832Z,18.40
2018-06-21T13:21:54.499Z,18.29
2018-06-21T13:24:24.126Z,18.08
2018-06-21T13:26:53.760Z,18.53
2018-06-21T13:29:23.404Z,19.15
2018-06-21T13:31:53.096Z,19.70
2018-06-21T13:34:22.827Z,20.01
2018-06-21T13:36:52.524Z,20.38
2018-06-21T13:39:22.160Z,20.55
2018-06-21T13:41:51.812Z,20.67
2018-06-21T13:44:21.773Z,20.75
2018-06-21T13:46:51.417Z,20.42
2018-06-21T13:49:21.089Z,20.39
2018-06-21T13:51:50.741Z,20.51
2018-06-21T13:54:20.360Z,20.61
2018-06-21T13:56:50.037Z,20.82
2018-06-21T13:59:20.192Z,21.07
2018-06-21T14:01:50.700Z,21.01
2018-06-21T14:04:20.782Z,20.83
2018-06-21T14:06:50.474Z,20.57
2018-06-21T14:09:20.156Z,20.68
2018-06-21T14:11:49.803Z,20.67
2018-06-21T14:14:19.515Z,20.99
2018-06-21T14:16:49.179Z,20.80
2018-06-21T14:19:18.944Z,20.76
2018-06-21T14:21:48.560Z,20.47
2018-06-21T14:24:18.247Z,20.66
2018-06-21T14:26:47.883Z,20.63
2018-06-21T14:29:17.642Z,20.71
2018-06-21T14:31:47.288Z,20.59
2018-06-21T14:34:16.963Z,20.42
2018-06-21T14:36:46.669Z,20.24
2018-06-21T14:39:16.305Z,20.33
2018-06-21T14:41:45.975Z,19.90
2018-06-21T14:44:15.721Z,19.90
2018-06-21T14:46:45.361Z,20.13
2018-06-21T14:49:14.971Z,19.84
2018-06-21T14:51:44.676Z,19.43
2018-06-21T14:54:14.380Z,18.92
2018-06-21T14:56:44.065Z,18.98
2018-06-21T14:59:13.736Z,18.79
2018-06-21T15:01:43.420Z,18.73
2018-06-21T15:04:13.100Z,18.75
2018-06-21T15:06:42.752Z,18.81
2018-06-21T15:09:13.783Z,18.72
2018-06-21T15:11:43.452Z,18.60
2018-06-21T15:14:13.128Z,18.68
2018-06-21T15:16:42.796Z,18.54
2018-06-21T15:19:12.440Z,18.50
2018-06-21T15:21:42.127Z,18.53
2018-06-21T15:24:11.760Z,18.53
2018-06-21T15:26:41.422Z,18.60
2018-06-21T15:29:11.137Z,18.57
2018-06-21T15:31:40.844Z,18.35
2018-06-21T15:34:10.498Z,18.22
2018-06-21T15:36:40.184Z,18.32
2018-06-21T15:39:24.011Z,18.34
2018-06-21T15:41:53.740Z,18.33
2018-06-21T15:44:23.380Z,18.57
2018-06-21T15:46:53.192Z,18.59
2018-06-21T15:49:22.842Z,18.64
2018-06-21T15:51:52.481Z,18.45
2018-06-21T15:54:22.176Z,18.53
2018-06-21T15:56:51.820Z,18.61
2018-06-21T15:59:21.480Z,18.67
2018-06-21T16:01:51.187Z,18.59
2018-06-21T16:04:20.844Z,18.48
2018-06-21T16:06:50.510Z,18.28
2018-06-21T16:09:20.248Z,18.15
2018-06-21T16:11:49.897Z,18.26
2018-06-21T16:14:19.556Z,18.18
2018-06-21T16:16:49.257Z,18.26
2018-06-21T16:19:18.895Z,18.26
2018-06-21T16:21:48.547Z,18.10
2018-06-21T16:24:18.219Z,18.16
2018-06-21T16:26:47.885Z,18.17
2018-06-21T16:29:17.628Z,18.06
2018-06-21T16:31:47.359Z,17.92
2018-06-21T16:34:17.010Z,17.79
2018-06-21T16:36:46.669Z,17.89
2018-06-21T16:39:16.372Z,17.54
2018-06-21T16:41:46.021Z,17.48
2018-06-21T16:44:15.672Z,17.20
2018-06-21T16:46:45.351Z,16.99
2018-06-21T16:49:14.989Z,17.10
2018-06-21T16:51:44.638Z,17.02
2018-06-21T16:54:14.325Z,17.09
2018-06-21T16:56:43.965Z,16.97
2018-06-21T16:59:13.650Z,17.05
2018-06-21T17:01:43.352Z,17.02
2018-06-21T17:04:12.967Z,16.80
2018-06-21T17:06:42.620Z,16.80
2018-06-21T17:09:12.296Z,16.82
2018-06-21T17:11:42.148Z,16.84
2018-06-21T17:14:11.787Z,16.90
2018-06-21T17:16:41.464Z,16.95
2018-06-21T17:19:11.087Z,16.88
2018-06-21T17:21:40.832Z,16.85
2018-06-21T17:24:10.527Z,16.90
2018-06-21T17:26:40.251Z,16.98
2018-06-21T17:29:09.916Z,16.84
2018-06-21T17:31:39.585Z,16.85
2018-06-21T17:34:09.227Z,16.79
2018-06-21T17:36:38.948Z,16.71
2018-06-21T17:39:10.069Z,16.73
2018-06-21T17:41:39.720Z,16.57
2018-06-21T17:44:09.344Z,16.51
2018-06-21T17:46:39.049Z,16.49
2018-06-21T17:49:08.692Z,16.41
2018-06-21T17:51:38.356Z,16.35
2018-06-21T17:54:08.037Z,16.24
2018-06-21T17:56:37.680Z,16.21
2018-06-21T17:59:07.351Z,15.92
2018-06-21T18:01:37.050Z,15.82
2018-06-21T18:04:06.700Z,15.90
2018-06-21T18:06:36.340Z,15.91
2018-06-21T18:09:08.184Z,16.03
2018-06-21T18:11:37.840Z,16.07
2018-06-21T18:14:07.554Z,15.94
2018-06-21T18:16:37.267Z,15.80
2018-06-21T18:19:06.913Z,15.84
2018-06-21T18:21:36.560Z,15.76
2018-06-21T18:24:06.267Z,15.79
2018-06-21T18:26:35.916Z,15.71
2018-06-21T18:29:05.558Z,15.69
2018-06-21T18:31:35.240Z,15.64
2018-06-21T18:34:05.004Z,15.52
2018-06-21T18:36:34.661Z,15.50
2018-06-21T18:39:04.729Z,15.58
2018-06-21T18:41:34.403Z,15.46
2018-06-21T18:44:04.100Z,15.49
2018-06-21T18:46:33.772Z,15.51
2018-06-21T18:49:03.441Z,15.40
2018-06-21T18:51:33.133Z,15.36
2018-06-21T18:54:02.808Z,15.52
2018-06-21T18:56:32.440Z,15.53
2018-06-21T18:59:02.140Z,15.59
2018-06-21T19:01:31.759Z,15.57
2018-06-21T19:04:01.422Z,15.68
2018-06-21T19:06:36.203Z,15.63
2018-06-21T19:09:13.093Z,15.44
2018-06-21T19:11:48.047Z,15.32
2018-06-21T19:14:17.675Z,15.12
2018-06-21T19:16:47.331Z,15.08
2018-06-21T19:19:17.072Z,15.12
2018-06-21T19:21:46.746Z,15.01
2018-06-21T19:24:16.368Z,14.93
2018-06-21T19:26:46.120Z,14.92
2018-06-21T19:29:15.760Z,14.97
2018-06-21T19:31:45.392Z,14.83
2018-06-21T19:34:15.293Z,14.81
2018-06-21T19:36:44.930Z,14.73
2018-06-21T19:39:14.564Z,14.73
2018-06-21T19:41:44.246Z,14.72
2018-06-21T19:44:13.873Z,14.56
2018-06-21T19:46:43.512Z,14.52
2018-06-21T19:49:13.178Z,14.46
2018-06-21T19:51:42.897Z,14.45
2018-06-21T19:54:12.570Z,14.35
2018-06-21T19:56:42.296Z,14.37
2018-06-21T19:59:11.921Z,14.31
2018-06-21T20:01:41.559Z,14.23
2018-06-21T20:04:11.271Z,14.35
2018-06-21T20:06:40.944Z,14.24
2018-06-21T20:09:11.908Z,14.26
2018-06-21T20:11:41.548Z,14.30
2018-06-21T20:14:11.239Z,14.28
2018-06-21T20:16:40.899Z,14.24
2018-06-21T20:19:15.327Z,14.29
2018-06-21T20:21:45.147Z,14.21
2018-06-21T20:24:14.807Z,14.15
2018-06-21T20:26:44.488Z,14.22
2018-06-21T20:29:19.239Z,14.26
2018-06-21T20:31:48.935Z,14.22
2018-06-21T20:34:18.588Z,14.13
2018-06-21T20:36:48.298Z,13.98
2018-06-21T20:39:17.956Z,13.91
2018-06-21T20:41:47.582Z,13.76
2018-06-21T20:44:17.365Z,13.57
2018-06-21T20:46:46.957Z,13.53
2018-06-21T20:49:16.585Z,13.51
2018-06-21T20:51:46.260Z,13.48
2018-06-21T20:54:15.956Z,13.36
2018-06-21T20:56:45.647Z,13.21
2018-06-21T20:59:15.293Z,13.38
2018-06-21T21:01:44.963Z,13.33
2018-06-21T21:04:14.591Z,13.19
2018-06-21T21:06:44.255Z,13.28
2018-06-21T21:09:13.961Z,13.20
2018-06-21T21:11:43.560Z,13.11
2018-06-21T21:14:13.253Z,12.95
2018-06-21T21:16:42.957Z,12.87
2018-06-21T21:19:12.601Z,12.95
2018-06-21T21:21:42.288Z,12.88
2018-06-21T21:24:11.961Z,12.63
2018-06-21T21:26:41.624Z,12.65
2018-06-21T21:29:11.300Z,12.58
2018-06-21T21:31:41.021Z,12.47
2018-06-21T21:34:10.621Z,12.49
2018-06-21T21:36:40.284Z,12.67
2018-06-21T21:39:10.714Z,12.65
2018-06-21T21:41:40.385Z,12.70
2018-06-21T21:44:10.042Z,12.67
2018-06-21T21:46:39.676Z,12.64
2018-06-21T21:49:09.398Z,12.58
2018-06-21T21:51:39.017Z,12.38
2018-06-21T21:54:08.659Z,12.30
2018-06-21T21:56:38.336Z,12.26
2018-06-21T21:59:07.933Z,12.22
2018-06-21T22:01:37.586Z,12.20
2018-06-21T22:04:07.252Z,12.05
2018-06-21T22:06:36.920Z,12.01
2018-06-21T22:09:08.887Z,12.12
2018-06-21T22:11:39.088Z,11.86
2018-06-21T22:14:08.751Z,11.85
2018-06-21T22:16:38.380Z,11.73
2018-06-21T22:19:08.055Z,11.74
2018-06-21T22:21:37.714Z,11.80
2018-06-21T22:24:07.449Z,11.72
2018-06-21T22:26:37.147Z,11.80
2018-06-21T22:29:06.783Z,11.82
2018-06-21T22:31:36.420Z,11.82
2018-06-21T22:34:06.305Z,11.75
2018-06-21T22:36:35.942Z,11.86
2018-06-21T22:39:08.322Z,11.73
2018-06-21T22:41:37.947Z,11.68
2018-06-21T22:44:07.589Z,11.77
2018-06-21T22:46:37.275Z,11.75
2018-06-21T22:49:07.444Z,11.59
2018-06-21T22:51:37.248Z,11.52
2018-06-21T22:54:07.383Z,11.36
2018-06-21T22:56:37.056Z,11.36
2018-06-21T22:59:06.693Z,11.30
2018-06-21T23:01:36.355Z,11.28
2018-06-21T23:04:06.073Z,11.40
2018-06-21T23:06:35.712Z,11.37
2018-06-21T23:09:06.831Z,11.40
2018-06-21T23:11:36.473Z,11.47
2018-06-21T23:14:06.168Z,11.39
2018-06-21T23:16:35.845Z,11.42
2018-06-21T23:19:16.448Z,11.43
2018-06-21T23:21:46.064Z,11.47
2018-06-21T23:24:15.746Z,11.48
2018-06-21T23:26:45.433Z,11.53
2018-06-21T23:29:15.077Z,11.60
2018-06-21T23:31:44.880Z,11.58
2018-06-21T23:34:14.444Z,11.57
2018-06-21T23:36:44.137Z,11.63
2018-06-21T23:39:13.848Z,11.72
2018-06-21T23:41:44.157Z,11.77
2018-06-21T23:44:14.737Z,11.77
2018-06-21T23:46:44.896Z,11.74
2018-06-21T23:49:14.881Z,11.67
2018-06-21T23:51:44.568Z,11.71
2018-06-21T23:54:14.824Z,11.87
2018-06-21T23:56:45.100Z,11.81
2018-06-21T23:59:14.748Z,11.78
